createdAt,value
2023-04-03T00:02:02.772Z,97645.97
2023-04-03T00:05:05.540Z,97651.38
2023-04-03T00:08:08.923Z,97654.00
2023-04-03T00:11:11.126Z,97651.47
2023-04-03T00:14:12.576Z,97661.78
2023-04-03T00:17:14.086Z,97658.19
2023-04-03T00:20:15.600Z,97659.88
2023-04-03T00:23:17.247Z,97668.69
2023-04-03T00:26:18.804Z,97675.09
2023-04-03T00:29:20.823Z,97673.81
2023-04-03T00:32:22.326Z,97672.47
2023-04-03T00:35:25.295Z,97667.16
2023-04-03T00:38:27.383Z,97675.66
2023-04-03T00:41:28.969Z,97672.19
2023-04-03T00:44:36.477Z,97685.69
2023-04-03T00:47:40.531Z,97679.19
2023-04-03T00:50:44.508Z,97675.19
2023-04-03T00:53:49.958Z,97674.84
2023-04-03T00:56:54.320Z,97672.50
2023-04-03T01:00:02.640Z,97667.72
2023-04-03T01:03:04.589Z,97662.97
2023-04-03T01:06:06.861Z,97663.16
2023-04-03T01:09:08.619Z,97660.50
2023-04-03T01:12:19.678Z,97658.44
2023-04-03T01:15:25.516Z,97658.94
2023-04-03T01:18:27.556Z,97655.78
2023-04-03T01:21:55.564Z,97660.53
2023-04-03T01:24:57.054Z,97666.00
2023-04-03T01:27:58.634Z,97659.53
2023-04-03T01:31:32.494Z,97669.06
2023-04-03T01:34:34.171Z,97675.38
2023-04-03T01:37:36.136Z,97674.59
2023-04-03T01:40:38.328Z,97668.84
2023-04-03T01:43:40.455Z,97657.59
2023-04-03T01:46:43.219Z,97670.66
2023-04-03T01:49:44.928Z,97671.06
2023-04-03T01:52:46.612Z,97671.09
2023-04-03T01:55:49.129Z,97665.34
2023-04-03T01:58:50.664Z,97656.56
2023-04-03T02:01:52.719Z,97664.69
2023-04-03T02:04:54.318Z,97661.19
2023-04-03T02:07:57.363Z,97653.28
2023-04-03T02:10:58.912Z,97654.94
2023-04-03T02:14:00.673Z,97655.91
2023-04-03T02:17:06.256Z,97650.50
2023-04-03T02:20:08.541Z,97649.50
2023-04-03T02:23:10.713Z,97644.13
2023-04-03T02:26:14.743Z,97646.44
2023-04-03T02:29:16.402Z,97650.09
2023-04-03T02:32:17.916Z,97652.25
2023-04-03T02:35:21.135Z,97649.00
2023-04-03T02:38:24.961Z,97645.03
2023-04-03T02:41:29.362Z,97640.31
2023-04-03T02:44:31.377Z,97643.44
2023-04-03T02:47:33.253Z,97641.03
2023-04-03T02:50:34.969Z,97631.91
2023-04-03T02:53:36.584Z,97632.72
2023-04-03T02:56:44.702Z,97635.50
2023-04-03T02:59:46.227Z,97638.97
2023-04-03T03:02:49.734Z,97645.13
2023-04-03T03:05:51.355Z,97645.25
2023-04-03T03:08:53.287Z,97642.47
2023-04-03T03:11:55.196Z,97646.72
2023-04-03T03:14:56.723Z,97645.69
2023-04-03T03:17:58.204Z,97641.38
2023-04-03T03:21:01.701Z,97649.19
2023-04-03T03:24:03.712Z,97655.50
2023-04-03T03:27:05.267Z,97648.72
2023-04-03T03:30:07.478Z,97658.63
2023-04-03T03:33:09.456Z,97654.69
2023-04-03T03:36:11.758Z,97651.31
2023-04-03T03:39:13.373Z,97657.75
2023-04-03T03:42:14.938Z,97665.13
2023-04-03T03:45:16.618Z,97666.78
2023-04-03T03:48:18.179Z,97660.16
2023-04-03T03:51:19.862Z,97662.47
2023-04-03T03:54:21.468Z,97664.63
2023-04-03T03:57:23.159Z,97672.69
2023-04-03T04:00:24.766Z,97676.13
2023-04-03T04:03:30.382Z,97676.19
2023-04-03T04:06:32.032Z,97676.34
2023-04-03T04:09:38.728Z,97677.34
2023-04-03T04:12:40.735Z,97672.91
2023-04-03T04:15:43.772Z,97673.22
2023-04-03T04:18:45.358Z,97669.03
2023-04-03T04:21:47.280Z,97671.88
2023-04-03T04:24:49.542Z,97669.69
2023-04-03T04:27:51.244Z,97678.75
2023-04-03T04:30:53.266Z,97677.78
2023-04-03T04:33:56.090Z,97676.56
2023-04-03T04:36:57.900Z,97668.81
2023-04-03T04:40:00.894Z,97671.72
2023-04-03T04:43:02.642Z,97668.88
2023-04-03T04:46:08.430Z,97665.84
2023-04-03T04:49:14.656Z,97672.00
2023-04-03T04:52:16.199Z,97663.28
2023-04-03T04:55:18.071Z,97671.53
2023-04-03T04:58:20.816Z,97670.56
2023-04-03T05:01:22.900Z,97679.16
2023-04-03T05:04:31.860Z,97685.63
2023-04-03T05:07:39.975Z,97684.22
2023-04-03T05:10:42.406Z,97688.94
2023-04-03T05:13:45.757Z,97691.03
2023-04-03T05:16:50.201Z,97689.06
2023-04-03T05:19:53.532Z,97688.06
2023-04-03T05:22:57.296Z,97699.16
2023-04-03T05:25:59.102Z,97694.34
2023-04-03T05:29:01.107Z,97693.41
2023-04-03T05:32:03.436Z,97690.66
2023-04-03T05:35:06.742Z,97695.72
2023-04-03T05:38:08.761Z,97693.22
2023-04-03T05:41:10.492Z,97687.47
2023-04-03T05:44:12.407Z,97705.34
2023-04-03T05:47:14.556Z,97702.72
2023-04-03T05:50:16.503Z,97705.31
2023-04-03T05:53:29.271Z,97698.13
2023-04-03T05:56:33.819Z,97701.25
2023-04-03T05:59:35.970Z,97707.34
2023-04-03T06:02:37.723Z,97710.13
2023-04-03T06:05:39.536Z,97710.94
2023-04-03T06:08:42.366Z,97710.94
2023-04-03T06:11:44.193Z,97703.44
2023-04-03T06:14:45.838Z,97720.13
2023-04-03T06:17:49.375Z,97731.81
2023-04-03T06:20:51.412Z,97717.19
2023-04-03T06:23:53.145Z,97720.66
2023-04-03T06:26:54.676Z,97725.56
2023-04-03T06:29:56.489Z,97724.47
2023-04-03T06:32:57.979Z,97732.19
2023-04-03T06:35:59.873Z,97737.97
2023-04-03T06:39:02.631Z,97739.31
2023-04-03T06:42:04.183Z,97733.44
2023-04-03T06:45:12.825Z,97735.03
2023-04-03T06:48:14.380Z,97735.91
2023-04-03T06:51:27.740Z,97743.19
2023-04-03T06:54:29.286Z,97740.75
2023-04-03T06:57:30.806Z,97738.63
2023-04-03T07:00:32.431Z,97740.84
2023-04-03T07:03:34.549Z,97739.50
2023-04-03T07:06:37.141Z,97747.25
2023-04-03T07:09:38.587Z,97750.41
2023-04-03T07:12:40.097Z,97752.91
2023-04-03T07:15:41.526Z,97757.78
2023-04-03T07:18:43.046Z,97761.53
2023-04-03T07:21:45.522Z,97758.03
2023-04-03T07:24:47.069Z,97766.56
2023-04-03T07:27:50.053Z,97771.53
2023-04-03T07:30:54.078Z,97767.13
2023-04-03T07:33:55.578Z,97770.63
2023-04-03T07:36:57.532Z,97775.94
2023-04-03T07:40:00.031Z,97772.75
2023-04-03T07:43:02.118Z,97779.25
2023-04-03T07:46:06.229Z,97782.56
2023-04-03T07:49:07.878Z,97781.44
2023-04-03T07:52:10.076Z,97793.53
2023-04-03T07:55:11.846Z,97791.09
2023-04-03T07:58:16.548Z,97790.72
2023-04-03T08:01:18.061Z,97793.56
2023-04-03T08:04:19.576Z,97790.63
2023-04-03T08:07:21.885Z,97792.69
2023-04-03T08:10:23.349Z,97803.91
2023-04-03T08:13:24.959Z,97793.09
2023-04-03T08:16:27.873Z,97799.31
2023-04-03T08:19:29.424Z,97790.31
2023-04-03T08:22:31.605Z,97792.88
2023-04-03T08:25:33.494Z,97789.84
2023-04-03T08:28:35.331Z,97801.88
2023-04-03T08:31:36.868Z,97809.16
2023-04-03T08:34:40.372Z,97804.50
2023-04-03T08:37:41.940Z,97814.91
2023-04-03T08:40:43.489Z,97816.00
2023-04-03T08:43:58.665Z,97819.22
2023-04-03T08:47:25.259Z,97823.81
2023-04-03T08:50:34.291Z,97833.22
2023-04-03T08:53:43.292Z,97839.50
2023-04-03T08:56:44.886Z,97836.91
2023-04-03T08:59:46.459Z,97832.44
2023-04-03T09:02:54.034Z,97832.88
2023-04-03T09:06:00.951Z,97840.47
2023-04-03T09:09:27.746Z,97851.13
2023-04-03T09:12:35.590Z,97858.91
2023-04-03T09:15:39.432Z,97860.03
2023-04-03T09:18:49.810Z,97851.34
2023-04-03T09:21:56.968Z,97852.47
2023-04-03T09:25:06.875Z,97854.97
2023-04-03T09:28:10.847Z,97846.09
2023-04-03T09:31:21.599Z,97830.22
2023-04-03T09:34:24.282Z,97826.13
2023-04-03T09:37:34.920Z,97831.56
2023-04-03T09:40:43.201Z,97825.94
2023-04-03T09:43:54.323Z,97831.25
2023-04-03T09:46:55.870Z,97837.72
2023-04-03T09:50:15.523Z,97837.03
2023-04-03T09:53:46.250Z,97834.94
2023-04-03T09:56:56.564Z,97835.75
2023-04-03T10:00:01.018Z,97841.47
2023-04-03T10:03:04.052Z,97836.69
2023-04-03T10:06:24.091Z,97834.63
2023-04-03T10:09:34.129Z,97827.34
2023-04-03T10:12:35.761Z,97834.69
2023-04-03T10:15:43.848Z,97838.28
2023-04-03T10:19:14.387Z,97832.47
2023-04-03T10:22:44.057Z,97838.00
2023-04-03T10:26:17.216Z,97833.84
2023-04-03T10:29:46.250Z,97832.50
2023-04-03T10:33:06.022Z,97839.44
2023-04-03T10:36:18.774Z,97836.53
2023-04-03T10:39:46.561Z,97835.50
2023-04-03T10:43:07.423Z,97826.22
2023-04-03T10:46:21.507Z,97828.59
2023-04-03T10:49:57.129Z,97830.31
2023-04-03T10:53:27.737Z,97824.19
2023-04-03T10:56:38.032Z,97823.19
2023-04-03T10:59:59.604Z,97832.16
2023-04-03T11:03:07.325Z,97834.59
2023-04-03T11:06:11.915Z,97828.03
2023-04-03T11:09:25.711Z,97822.06
2023-04-03T11:12:44.143Z,97824.13
2023-04-03T11:15:50.946Z,97822.22
2023-04-03T11:19:18.829Z,97815.75
2023-04-03T11:22:31.573Z,97813.94
2023-04-03T11:25:37.933Z,97816.03
2023-04-03T11:28:40.772Z,97806.31
2023-04-03T11:32:07.681Z,97811.34
2023-04-03T11:35:10.670Z,97808.56
2023-04-03T11:38:37.314Z,97793.88
2023-04-03T11:41:38.960Z,97796.13
2023-04-03T11:44:40.542Z,97788.66
2023-04-03T11:48:24.794Z,97794.66
2023-04-03T11:51:29.489Z,97783.88
2023-04-03T11:54:46.712Z,97790.09
2023-04-03T11:58:03.377Z,97790.28
2023-04-03T12:01:07.816Z,97783.34
2023-04-03T12:04:15.011Z,97788.53
2023-04-03T12:07:19.910Z,97784.50
2023-04-03T12:10:32.779Z,97782.16
2023-04-03T12:13:40.917Z,97786.59
2023-04-03T12:16:42.385Z,97782.03
2023-04-03T12:19:45.879Z,97787.97
2023-04-03T12:23:28.441Z,97793.22
2023-04-03T12:26:54.491Z,97788.03
2023-04-03T12:30:08.089Z,97789.66
2023-04-03T12:33:25.119Z,97795.69
2023-04-03T12:36:41.591Z,97780.31
2023-04-03T12:39:53.702Z,97778.41
2023-04-03T12:43:08.613Z,97778.28
2023-04-03T12:46:10.941Z,97781.22
2023-04-03T12:49:19.193Z,97778.56
2023-04-03T12:52:42.385Z,97781.03
2023-04-03T12:55:44.140Z,97779.19
2023-04-03T12:58:45.830Z,97768.28
2023-04-03T13:01:59.425Z,97772.00
2023-04-03T13:05:11.028Z,97769.00
2023-04-03T13:08:16.820Z,97770.28
2023-04-03T13:11:21.303Z,97762.31
2023-04-03T13:14:24.927Z,97760.75
2023-04-03T13:17:28.584Z,97762.91
2023-04-03T13:20:35.470Z,97753.63
2023-04-03T13:23:41.757Z,97759.81
2023-04-03T13:26:44.291Z,97762.88
2023-04-03T13:29:52.355Z,97756.44
2023-04-03T13:32:55.497Z,97755.03
2023-04-03T13:36:02.816Z,97743.53
2023-04-03T13:39:22.080Z,97750.84
2023-04-03T13:42:28.466Z,97741.66
2023-04-03T13:45:31.575Z,97742.97
2023-04-03T13:48:39.216Z,97750.44
2023-04-03T13:51:40.818Z,97745.22
2023-04-03T13:54:48.089Z,97742.63
2023-04-03T13:58:20.317Z,97741.56
2023-04-03T14:01:23.515Z,97744.03
2023-04-03T14:04:29.924Z,97746.88
2023-04-03T14:07:32.141Z,97735.84
2023-04-03T14:10:33.867Z,97740.47
2023-04-03T14:13:35.434Z,97735.97
2023-04-03T14:16:41.903Z,97730.28
2023-04-03T14:19:44.065Z,97735.06
2023-04-03T14:22:45.760Z,97735.31
2023-04-03T14:25:47.407Z,97726.84
2023-04-03T14:28:53.146Z,97728.03
2023-04-03T14:32:07.405Z,97727.53
2023-04-03T14:35:14.045Z,97723.28
2023-04-03T14:38:30.993Z,97721.03
2023-04-03T14:41:32.459Z,97721.94
2023-04-03T14:44:33.970Z,97723.53
2023-04-03T14:47:41.888Z,97720.66
2023-04-03T14:50:51.669Z,97713.63
2023-04-03T14:54:00.144Z,97720.09
2023-04-03T14:57:02.682Z,97707.22
2023-04-03T15:00:05.809Z,97720.59
2023-04-03T15:03:07.381Z,97719.00
2023-04-03T15:06:12.613Z,97714.00
2023-04-03T15:09:26.818Z,97716.53
2023-04-03T15:12:28.360Z,97726.84
2023-04-03T15:15:31.090Z,97722.41
2023-04-03T15:18:38.761Z,97719.31
2023-04-03T15:21:40.764Z,97729.41
2023-04-03T15:24:42.997Z,97725.91
2023-04-03T15:27:45.298Z,97729.84
2023-04-03T15:30:47.153Z,97727.38
2023-04-03T15:33:48.702Z,97718.38
2023-04-03T15:36:53.376Z,97733.69
2023-04-03T15:39:55.171Z,97728.94
2023-04-03T15:42:56.629Z,97733.06
2023-04-03T15:46:00.409Z,97735.28
2023-04-03T15:49:02.364Z,97729.91
2023-04-03T15:52:04.708Z,97726.81
2023-04-03T15:55:07.441Z,97724.78
2023-04-03T15:58:09.631Z,97720.66
2023-04-03T16:01:12.335Z,97720.53
2023-04-03T16:04:15.605Z,97723.03
2023-04-03T16:07:17.479Z,97715.16
2023-04-03T16:10:19.360Z,97716.00
2023-04-03T16:13:20.951Z,97722.88
2023-04-03T16:16:24.537Z,97718.69
2023-04-03T16:19:26.418Z,97721.59
2023-04-03T16:22:29.947Z,97718.69
2023-04-03T16:25:31.998Z,97720.75
2023-04-03T16:28:33.599Z,97725.56
2023-04-03T16:31:35.309Z,97724.06
2023-04-03T16:34:36.884Z,97726.19
2023-04-03T16:37:40.359Z,97735.00
2023-04-03T16:40:42.295Z,97729.75
2023-04-03T16:46:50.259Z,97733.44
2023-04-03T16:49:51.923Z,97729.31
2023-04-03T16:52:53.586Z,97728.94
2023-04-03T16:55:55.629Z,97733.47
2023-04-03T16:58:57.133Z,97731.25
2023-04-03T17:01:58.693Z,97738.72
2023-04-03T17:05:00.274Z,97739.69
2023-04-03T17:08:02.773Z,97737.28
2023-04-03T17:11:04.370Z,97737.91
2023-04-03T17:14:06.426Z,97747.75
2023-04-03T17:17:08.875Z,97736.72
2023-04-03T17:20:11.311Z,97734.75
2023-04-03T17:23:12.865Z,97733.91
2023-04-03T17:26:14.329Z,97741.56
2023-04-03T17:29:16.132Z,97741.69
2023-04-03T17:32:17.786Z,97736.38
2023-04-03T17:35:19.372Z,97746.47
2023-04-03T17:38:20.852Z,97735.78
2023-04-03T17:41:22.919Z,97734.22
2023-04-03T17:44:24.464Z,97736.47
2023-04-03T17:47:25.923Z,97740.44
2023-04-03T17:50:28.693Z,97735.94
2023-04-03T17:53:30.291Z,97742.44
2023-04-03T17:56:31.937Z,97735.72
2023-04-03T17:59:33.453Z,97750.28
2023-04-03T18:02:34.938Z,97747.97
2023-04-03T18:05:38.047Z,97739.09
2023-04-03T18:08:47.042Z,97738.59
2023-04-03T18:11:49.739Z,97744.03
2023-04-03T18:14:51.300Z,97748.47
2023-04-03T18:17:56.585Z,97741.56
2023-04-03T18:20:58.420Z,97737.00
2023-04-03T18:24:00.035Z,97744.34
2023-04-03T18:27:15.428Z,97744.72
2023-04-03T18:30:17.961Z,97753.84
2023-04-03T18:33:19.543Z,97757.38
2023-04-03T18:36:21.625Z,97753.88
2023-04-03T18:39:24.773Z,97753.53
2023-04-03T18:42:27.206Z,97753.38
2023-04-03T18:45:29.107Z,97752.88
2023-04-03T18:48:31.322Z,97756.00
2023-04-03T18:51:32.966Z,97764.59
2023-04-03T18:54:34.745Z,97763.91
2023-04-03T18:57:36.226Z,97756.00
2023-04-03T19:00:38.678Z,97766.78
2023-04-03T19:03:40.919Z,97760.34
2023-04-03T19:06:42.689Z,97759.56
2023-04-03T19:09:44.425Z,97757.72
2023-04-03T19:12:47.063Z,97759.72
2023-04-03T19:15:48.926Z,97743.50
2023-04-03T19:18:50.510Z,97755.72
2023-04-03T19:21:52.094Z,97762.31
2023-04-03T19:24:53.568Z,97754.22
2023-04-03T19:27:55.101Z,97761.69
2023-04-03T19:30:58.214Z,97756.88
2023-04-03T19:34:00.436Z,97758.69
2023-04-03T19:37:02.477Z,97754.06
2023-04-03T19:40:04.846Z,97760.00
2023-04-03T19:43:06.402Z,97760.66
2023-04-03T19:46:09.197Z,97760.00
2023-04-03T19:49:10.873Z,97756.00
2023-04-03T19:52:12.384Z,97767.50
2023-04-03T19:55:14.781Z,97760.31
2023-04-03T19:58:16.332Z,97756.56
2023-04-03T20:01:17.802Z,97755.53
2023-04-03T20:04:19.443Z,97759.81
2023-04-03T20:07:21.261Z,97760.88
2023-04-03T20:10:22.722Z,97762.22
2023-04-03T20:13:24.140Z,97756.22
2023-04-03T20:16:26.225Z,97749.59
2023-04-03T20:19:28.159Z,97753.34
2023-04-03T20:22:32.241Z,97752.31
2023-04-03T20:28:38.514Z,97748.78
2023-04-03T20:31:42.000Z,97748.41
2023-04-03T20:34:48.221Z,97741.94
2023-04-03T20:37:59.615Z,97741.44
2023-04-03T20:41:01.439Z,97733.69
2023-04-03T20:44:03.634Z,97738.06
2023-04-03T20:47:05.637Z,97734.38
2023-04-03T20:50:08.171Z,97737.81
2023-04-03T20:53:09.774Z,97735.84
2023-04-03T20:56:12.148Z,97734.81
2023-04-03T20:59:15.592Z,97743.03
2023-04-03T21:02:17.499Z,97735.59
2023-04-03T21:05:24.156Z,97735.13
2023-04-03T21:09:03.350Z,97730.00
2023-04-03T21:12:42.350Z,97718.31
2023-04-03T21:15:47.762Z,97723.53
2023-04-03T21:19:00.683Z,97722.38
2023-04-03T21:22:02.409Z,97717.72
2023-04-03T21:25:04.150Z,97715.63
2023-04-03T21:28:06.094Z,97711.13
2023-04-03T21:31:07.657Z,97713.72
2023-04-03T21:34:09.232Z,97711.16
2023-04-03T21:37:11.817Z,97710.50
2023-04-03T21:40:13.512Z,97708.00
2023-04-03T21:43:15.067Z,97714.13
2023-04-03T21:46:17.014Z,97712.94
2023-04-03T21:49:18.500Z,97718.16
2023-04-03T21:52:19.963Z,97710.47
2023-04-03T21:55:21.427Z,97714.41
2023-04-03T21:58:41.041Z,97714.63
2023-04-03T22:01:43.228Z,97711.66
2023-04-03T22:04:47.015Z,97709.03
2023-04-03T22:07:48.772Z,97710.13
2023-04-03T22:10:50.416Z,97713.91
2023-04-03T22:13:53.243Z,97718.06
2023-04-03T22:16:54.783Z,97710.75
2023-04-03T22:19:56.307Z,97710.56
2023-04-03T22:22:57.775Z,97703.22
2023-04-03T22:26:07.616Z,97713.91
2023-04-03T22:29:09.141Z,97705.88
2023-04-03T22:32:10.672Z,97710.16
2023-04-03T22:35:12.498Z,97709.13
2023-04-03T22:38:15.377Z,97716.06
2023-04-03T22:41:17.326Z,97703.84
2023-04-03T22:44:18.820Z,97706.97
2023-04-03T22:47:20.257Z,97710.75
2023-04-03T22:50:21.929Z,97712.50
2023-04-03T22:53:23.473Z,97707.88
2023-04-03T22:56:26.212Z,97712.22
2023-04-03T22:59:27.872Z,97709.63
2023-04-03T23:02:29.411Z,97715.75
2023-04-03T23:05:31.053Z,97708.91
2023-04-03T23:08:34.878Z,97714.22
2023-04-03T23:11:36.660Z,97716.53
2023-04-03T23:14:38.094Z,97710.66
2023-04-03T23:17:39.558Z,97713.91
2023-04-03T23:20:41.440Z,97708.28
2023-04-03T23:23:43.084Z,97711.41
2023-04-03T23:26:44.490Z,97716.22
2023-04-03T23:29:46.041Z,97712.78
2023-04-03T23:32:48.197Z,97716.66
2023-04-03T23:35:49.692Z,97705.63
2023-04-03T23:38:51.362Z,97704.66
2023-04-03T23:41:53.312Z,97699.53
2023-04-03T23:44:54.789Z,97704.50
2023-04-03T23:47:56.237Z,97694.28
2023-04-03T23:50:57.777Z,97702.31
2023-04-03T23:53:59.253Z,97697.03
2023-04-03T23:57:01.136Z,97701.75
